Details for EasyJet at EGGP




Go Back


Latest METAR
Local Time

EGGP 252150Z 05013KT 8000 BKN008 OVC011 15/13 Q1021

25/05/2018, 23:13:29

Description
Results
EasyJet Logo
Number of Pilots based at EGGP
0 Pilots Based here
Number of EasyJet Flights Departed from EGGP
8 Flights Departed
Number of EasyJet Flights Arrived at EGGP
9 Flights Arrived
Number of EasyJet Schedules Departing from EGGP
103 Schedules
Number of EasyJet Schedules Arriving at EGGP
106 Schedules
Number of EasyJet Schedules Departing from EGGP availible today
39 Schedules Today
Number of EasyJet Schedules Arriving at EGGP availible today
40 Schedules Today
Average Landing Rate at EGGP
-254 fpm
EasyJet Average Landing Rate at EGGP
-329 fpm
Total Fuel Purchased at EGGP by EasyJet
15,306.47 kgs / 33,744.64 lbs

Pilots Based at EGGP


Pilot ID
Pilot Name
Pilot Rank
No. of Flights
No. of Flying Hours
There are no pilots assigned to this hub!   Will you be the first?
Content